Time;durP1;ratioP1;P1;durP2;ratioP2;P2;SDS_P1;SDS_P2;PMS_P1;PMS_P2;Temp;Humidity;BMP_temperature;BMP_pressure;BME280_temperature;BME280_humidity;BME280_pressure;Samples;Min_cycle;Max_cycle;Signal;HPM_P1;HPM_P2
2023/12/27 00:00:37;;;;;;;5.35;3.80;;;;;;;11.31;68.60;97755.25;4896039;28;20237;-80
2023/12/27 00:03:02;;;;;;;5.03;3.95;;;;;;;11.38;68.06;97755.88;4884295;28;20392;-80
2023/12/27 00:05:28;;;;;;;4.80;3.72;;;;;;;11.43;68.59;97748.16;4894593;28;20270;-80
2023/12/27 00:07:53;;;;;;;5.00;3.50;;;;;;;11.37;68.80;97750.91;4888478;28;20293;-80
2023/12/27 00:10:19;;;;;;;5.28;3.90;;;;;;;11.48;69.03;97750.06;4887512;28;20139;-80
2023/12/27 00:12:44;;;;;;;5.30;3.75;;;;;;;11.39;68.58;97744.41;4897971;28;20296;-80
2023/12/27 00:15:10;;;;;;;6.53;4.35;;;;;;;11.44;68.97;97748.94;4906705;28;20176;-80
2023/12/27 00:17:35;;;;;;;6.25;3.95;;;;;;;11.39;68.14;97744.41;4911621;28;20125;-80
2023/12/27 00:20:02;;;;;;;5.38;4.00;;;;;;;11.35;68.63;97735.47;4901101;28;20296;-80
2023/12/27 00:22:27;;;;;;;5.75;4.10;;;;;;;11.33;69.05;97734.16;4906838;28;20111;-80
2023/12/27 00:24:53;;;;;;;9.98;4.90;;;;;;;11.29;68.98;97739.00;4905148;28;20659;-80
2023/12/27 00:27:18;;;;;;;6.75;4.35;;;;;;;11.40;68.98;97732.97;4893991;28;20132;-80
2023/12/27 00:29:44;;;;;;;5.28;4.35;;;;;;;11.34;68.79;97749.53;4904911;28;20835;-80
2023/12/27 00:32:11;;;;;;;6.28;4.07;;;;;;;11.37;68.00;97746.47;4889258;28;20158;-80
2023/12/27 00:34:37;;;;;;;7.80;4.95;;;;;;;11.27;68.15;97748.91;4901623;28;20352;-80
2023/12/27 00:37:02;;;;;;;7.03;4.55;;;;;;;11.17;68.74;97746.09;4867766;28;20287;-79
2023/12/27 00:39:28;;;;;;;7.90;5.10;;;;;;;11.40;68.59;97763.47;4905461;28;20287;-80
2023/12/27 00:41:54;;;;;;;8.32;4.93;;;;;;;11.40;68.66;97759.03;4906678;28;20182;-80
2023/12/27 00:44:19;;;;;;;6.45;4.53;;;;;;;11.36;68.65;97746.69;4911483;28;20196;-80
2023/12/27 00:46:44;;;;;;;8.20;4.45;;;;;;;11.41;68.42;97757.22;4896781;28;20185;-80
2023/12/27 00:49:10;;;;;;;7.40;4.68;;;;;;;11.38;68.54;97757.69;4905434;28;20300;-81
2023/12/27 00:51:35;;;;;;;9.05;4.80;;;;;;;11.34;68.47;97748.75;4888346;28;20339;-81
2023/12/27 00:54:01;;;;;;;7.10;4.57;;;;;;;11.25;69.08;97750.94;4889455;28;20196;-80
2023/12/27 00:56:26;;;;;;;7.68;4.72;;;;;;;11.28;68.03;97750.50;4910420;28;20700;-80
2023/12/27 00:58:51;;;;;;;6.57;4.43;;;;;;;11.31;68.86;97759.63;4889840;28;20703;-80
2023/12/27 01:01:17;;;;;;;6.25;4.10;;;;;;;11.27;68.35;97758.53;4905773;28;20229;-80
2023/12/27 01:03:42;;;;;;;7.78;4.18;;;;;;;11.33;68.30;97768.03;4918765;28;20307;-80
2023/12/27 01:06:11;;;;;;;6.22;3.97;;;;;;;11.40;68.72;97774.69;4876970;28;20276;-81
2023/12/27 01:08:37;;;;;;;5.78;3.75;;;;;;;11.42;68.92;97772.63;4881822;28;20263;-79
2023/12/27 01:11:02;;;;;;;5.25;3.65;;;;;;;11.33;68.81;97771.44;4892508;28;20208;-81
2023/12/27 01:13:28;;;;;;;7.75;3.30;;;;;;;11.32;68.48;97766.44;4916453;28;20249;-80
2023/12/27 01:15:54;;;;;;;6.72;3.80;;;;;;;11.20;68.28;97753.47;4918260;28;20190;-80
2023/12/27 01:18:20;;;;;;;7.70;3.88;;;;;;;11.36;67.98;97773.56;4890998;28;20288;-80
2023/12/27 01:20:46;;;;;;;5.32;3.45;;;;;;;11.19;68.53;97752.69;4919931;28;20254;-80
2023/12/27 01:23:11;;;;;;;8.10;3.80;;;;;;;11.31;69.04;97767.47;4900419;28;20227;-81
2023/12/27 01:25:37;;;;;;;8.80;4.00;;;;;;;11.36;68.76;97764.94;4906209;28;20231;-80
2023/12/27 01:28:02;;;;;;;7.93;4.05;;;;;;;11.29;67.77;97762.47;4908862;28;20092;-80
2023/12/27 01:30:29;;;;;;;4.50;3.00;;;;;;;11.35;68.06;97758.94;4918667;28;20649;-80
2023/12/27 01:32:55;;;;;;;6.53;3.72;;;;;;;11.33;68.10;97753.19;4887918;28;20187;-81
2023/12/27 01:35:20;;;;;;;6.13;3.40;;;;;;;11.24;68.08;97749.34;4906725;28;20222;-80
2023/12/27 01:37:45;;;;;;;5.85;4.03;;;;;;;11.27;68.06;97751.50;4923069;28;20223;-80
2023/12/27 01:40:11;;;;;;;5.90;3.58;;;;;;;11.34;68.30;97751.34;4913455;28;20262;-81
2023/12/27 01:42:38;;;;;;;6.97;3.65;;;;;;;11.37;68.05;97749.06;4897949;28;20287;-81
2023/12/27 01:45:05;;;;;;;9.15;3.92;;;;;;;11.35;68.36;97738.09;4901337;28;20228;-80
2023/12/27 01:47:32;;;;;;;6.00;3.47;;;;;;;11.30;68.48;97742.44;4907912;28;20197;-81
2023/12/27 01:49:58;;;;;;;6.07;3.70;;;;;;;11.31;68.05;97750.03;4904014;28;20248;-80
2023/12/27 01:52:23;;;;;;;4.57;2.63;;;;;;;11.29;67.91;97749.44;4889683;28;20287;-80
2023/12/27 01:54:49;;;;;;;4.38;3.33;;;;;;;11.34;68.13;97752.13;4882459;28;20295;-80
2023/12/27 01:57:16;;;;;;;8.50;4.03;;;;;;;11.25;68.18;97750.94;4901922;28;20073;-81
2023/12/27 01:59:42;;;;;;;6.95;3.35;;;;;;;11.31;68.15;97755.25;4905872;28;20718;-81
2023/12/27 02:02:07;;;;;;;4.45;3.08;;;;;;;11.27;68.89;97748.91;4908968;28;20186;-80
2023/12/27 02:04:33;;;;;;;5.47;3.33;;;;;;;11.24;68.25;97751.97;4910964;28;20301;-80
2023/12/27 02:06:58;;;;;;;6.90;4.00;;;;;;;11.31;68.52;97755.25;4875115;28;20226;-79
2023/12/27 02:09:26;;;;;;;9.55;3.55;;;;;;;11.30;67.68;97748.44;4908137;28;20291;-80
2023/12/27 02:11:51;;;;;;;5.50;3.33;;;;;;;11.32;68.70;97756.03;4894006;28;20273;-81
2023/12/27 02:14:16;;;;;;;4.80;2.75;;;;;;;11.23;68.52;97745.97;4910090;28;20273;-80
2023/12/27 02:16:42;;;;;;;6.55;3.40;;;;;;;11.23;68.02;97737.38;4893380;28;20288;-81
2023/12/27 02:19:11;;;;;;;5.82;3.40;;;;;;;11.31;68.98;97754.44;4909316;28;20292;-81
2023/12/27 02:21:37;;;;;;;5.43;3.20;;;;;;;11.24;68.88;97741.53;4894635;28;20246;-80
2023/12/27 02:24:03;;;;;;;7.57;3.70;;;;;;;11.14;69.06;97744.78;4891499;28;20598;-80
2023/12/27 02:26:28;;;;;;;6.65;3.03;;;;;;;11.14;67.97;97736.16;4903150;28;20272;-81
2023/12/27 02:28:54;;;;;;;8.15;3.08;;;;;;;10.82;69.08;97726.19;4902261;28;20649;-80
2023/12/27 02:31:19;;;;;;;4.95;3.00;;;;;;;11.13;68.37;97745.00;4924083;28;20637;-80
2023/12/27 02:33:45;;;;;;;6.82;3.20;;;;;;;11.09;68.05;97725.63;4892620;28;20197;-80
2023/12/27 02:36:10;;;;;;;5.30;2.50;;;;;;;11.19;68.01;97728.41;4907537;28;20034;-80
2023/12/27 02:38:36;;;;;;;6.18;2.85;;;;;;;11.13;68.28;97717.13;4909722;28;20030;-79
2023/12/27 02:41:04;;;;;;;4.15;2.60;;;;;;;11.21;67.91;97724.56;4900129;28;20689;-79
2023/12/27 02:43:30;;;;;;;4.07;2.67;;;;;;;11.19;68.02;97720.59;4909702;28;20197;-80
2023/12/27 02:45:55;;;;;;;3.28;2.67;;;;;;;11.18;67.74;97719.03;4908593;28;20178;-80
2023/12/27 02:48:20;;;;;;;4.10;2.80;;;;;;;11.29;67.89;97717.38;4910743;28;20277;-80
2023/12/27 02:50:46;;;;;;;3.88;2.30;;;;;;;11.26;68.13;97710.84;4908517;28;20754;-80
2023/12/27 02:53:11;;;;;;;4.80;2.90;;;;;;;11.14;68.24;97713.50;4907616;28;20205;-81
2023/12/27 02:55:37;;;;;;;3.88;2.47;;;;;;;11.18;68.23;97724.25;4921308;28;20276;-80
2023/12/27 02:58:03;;;;;;;5.75;2.78;;;;;;;11.10;68.39;97711.59;4903251;28;20190;-79
2023/12/27 03:00:34;;;;;;;6.07;2.65;;;;;;;11.17;68.58;97709.63;4906561;28;20191;-81
2023/12/27 03:03:01;;;;;;;6.97;3.08;;;;;;;11.20;68.19;97706.56;4905990;28;20851;-80
2023/12/27 03:05:26;;;;;;;4.28;2.80;;;;;;;11.17;68.58;97704.41;4912778;28;20282;-80
2023/12/27 03:07:52;;;;;;;5.13;2.92;;;;;;;11.16;68.66;97700.22;4899840;28;20174;-80
2023/12/27 03:10:17;;;;;;;4.60;2.70;;;;;;;11.08;68.35;97698.00;4892311;28;20275;-80
2023/12/27 03:12:43;;;;;;;5.65;2.63;;;;;;;11.06;68.51;97690.41;4906254;28;20265;-80
2023/12/27 03:15:08;;;;;;;4.00;2.65;;;;;;;11.20;68.87;97696.13;4887311;28;20679;-80
2023/12/27 03:17:34;;;;;;;6.05;3.13;;;;;;;11.11;68.42;97687.91;4911721;28;20288;-81
2023/12/27 03:19:59;;;;;;;5.72;2.78;;;;;;;11.05;68.51;97670.59;4901188;28;20276;-81
2023/12/27 03:22:25;;;;;;;5.68;3.30;;;;;;;11.16;68.02;97682.00;4900161;28;20272;-80
2023/12/27 03:24:50;;;;;;;6.63;2.80;;;;;;;11.24;68.37;97684.19;4917845;28;20145;-80
2023/12/27 03:27:16;;;;;;;6.63;3.17;;;;;;;11.11;68.84;97685.28;4921563;28;20103;-80
2023/12/27 03:29:41;;;;;;;6.28;2.75;;;;;;;11.14;67.90;97686.63;4877236;28;20038;-80
2023/12/27 03:32:07;;;;;;;4.95;3.38;;;;;;;11.17;68.92;97680.94;4907792;28;20284;-80
2023/12/27 03:34:34;;;;;;;4.65;2.95;;;;;;;11.17;68.14;97681.75;4892844;28;20678;-80
2023/12/27 03:36:59;;;;;;;4.32;3.25;;;;;;;11.05;69.00;97676.59;4878954;28;20251;-81
2023/12/27 03:39:26;;;;;;;5.63;3.65;;;;;;;11.12;68.93;97675.66;4903075;28;20300;-80
2023/12/27 03:41:52;;;;;;;5.28;3.53;;;;;;;11.15;68.99;97673.38;4890408;28;20360;-81
2023/12/27 03:44:18;;;;;;;6.25;4.03;;;;;;;11.08;68.93;97662.31;4891301;28;20167;-80
2023/12/27 03:46:43;;;;;;;9.75;4.70;;;;;;;11.15;69.01;97662.94;4894845;28;20143;-80
2023/12/27 03:49:08;;;;;;;8.32;3.72;;;;;;;11.17;68.12;97665.31;4907417;28;20206;-80
2023/12/27 03:51:34;;;;;;;5.57;4.30;;;;;;;11.15;69.10;97656.94;4876938;28;20719;-79
2023/12/27 03:54:00;;;;;;;6.68;4.75;;;;;;;11.15;68.32;97656.94;4912499;28;20699;-79
2023/12/27 03:56:26;;;;;;;7.07;3.75;;;;;;;11.21;68.08;97669.81;4920670;28;20215;-80
2023/12/27 03:58:52;;;;;;;7.00;4.03;;;;;;;11.12;68.63;97666.03;4905814;28;20679;-80
2023/12/27 04:01:21;;;;;;;6.72;3.80;;;;;;;11.16;69.00;97664.53;4897650;28;20226;-80
2023/12/27 04:03:47;;;;;;;6.45;3.30;;;;;;;11.14;69.07;97661.38;4899264;28;20827;-81
2023/12/27 04:06:19;;;;;;;6.35;4.10;;;;;;;11.24;68.29;97663.34;4891795;28;20025;-80
2023/12/27 04:08:46;;;;;;;6.25;3.80;;;;;;;11.06;68.46;97659.94;4893696;28;20889;-80
2023/12/27 04:11:11;;;;;;;8.57;4.53;;;;;;;11.19;68.78;97660.66;4903518;28;20381;-80
2023/12/27 04:13:37;;;;;;;4.95;3.70;;;;;;;11.24;68.11;97663.34;4909624;28;20329;-79
2023/12/27 04:16:03;;;;;;;6.72;3.95;;;;;;;11.20;68.55;97651.81;4892666;28;20035;-80
2023/12/27 04:18:30;;;;;;;6.88;4.50;;;;;;;11.26;68.19;97666.53;4890753;28;20215;-79
2023/12/27 04:20:57;;;;;;;8.90;3.70;;;;;;;11.18;68.58;97667.69;4887740;28;20305;-81
2023/12/27 04:23:22;;;;;;;9.63;4.53;;;;;;;11.14;68.65;97665.78;4876845;28;20246;-80
2023/12/27 04:25:48;;;;;;;11.85;4.13;;;;;;;11.18;68.32;97669.50;4909224;28;20217;-81
2023/12/27 04:28:13;;;;;;;6.97;4.10;;;;;;;11.16;68.87;97680.16;4925691;28;20092;-80
2023/12/27 04:30:40;;;;;;;7.07;4.30;;;;;;;11.27;68.50;97675.13;4914413;28;20037;-80
2023/12/27 04:33:06;;;;;;;4.97;3.70;;;;;;;11.18;68.87;97654.66;4892454;28;20229;-80
2023/12/27 04:35:31;;;;;;;7.68;4.15;;;;;;;11.25;68.11;97663.09;4896159;28;20708;-80
2023/12/27 04:37:57;;;;;;;6.18;3.92;;;;;;;11.12;69.15;97665.22;4890985;28;20066;-79
2023/12/27 04:40:23;;;;;;;8.48;3.90;;;;;;;11.17;68.92;97670.53;4911695;28;20287;-81
2023/12/27 04:42:48;;;;;;;4.88;3.40;;;;;;;11.21;68.41;97666.44;4910236;28;20052;-80
2023/12/27 04:45:13;;;;;;;5.07;3.60;;;;;;;11.08;68.49;97656.31;4909221;28;20332;-80
2023/12/27 04:47:39;;;;;;;6.35;3.63;;;;;;;11.10;68.34;97656.84;4907450;28;20268;-81
2023/12/27 04:50:05;;;;;;;5.20;3.00;;;;;;;11.09;68.68;97637.84;4915988;28;20210;-80
2023/12/27 04:52:31;;;;;;;4.03;2.80;;;;;;;11.10;68.24;97646.44;4925959;28;20431;-81
2023/12/27 04:54:56;;;;;;;4.80;2.78;;;;;;;11.08;68.90;97628.44;4888759;28;20220;-80
2023/12/27 04:57:21;;;;;;;3.85;2.78;;;;;;;11.09;68.53;97637.03;4906095;28;20332;-80
2023/12/27 04:59:47;;;;;;;5.03;2.75;;;;;;;11.10;68.53;97636.00;4910442;28;20669;-81
2023/12/27 05:02:12;;;;;;;4.25;2.53;;;;;;;11.11;68.34;97637.59;4892967;28;20712;-81
2023/12/27 05:04:38;;;;;;;5.88;3.20;;;;;;;11.14;69.08;97634.50;4900522;28;20284;-81
2023/12/27 05:07:03;;;;;;;4.10;2.88;;;;;;;11.14;68.83;97644.94;4887370;28;20213;-81
2023/12/27 05:09:29;;;;;;;4.53;2.83;;;;;;;11.10;69.04;97628.97;4897153;28;20224;-81
2023/12/27 05:11:54;;;;;;;3.75;2.70;;;;;;;11.13;69.17;97633.72;4919966;28;20296;-81
2023/12/27 05:14:19;;;;;;;4.38;3.05;;;;;;;11.20;68.42;97633.56;4907790;28;20269;-81
2023/12/27 05:16:48;;;;;;;3.30;2.50;;;;;;;11.23;68.47;97644.31;4895734;28;20210;-81
2023/12/27 05:19:13;;;;;;;4.80;3.15;;;;;;;11.13;68.58;97614.69;4907055;28;20640;-81
2023/12/27 05:21:38;;;;;;;6.43;3.13;;;;;;;11.05;68.83;97616.66;4909411;28;20198;-81
2023/12/27 05:24:04;;;;;;;3.40;2.53;;;;;;;11.05;68.56;97616.66;4902774;28;20284;-81
2023/12/27 05:26:30;;;;;;;5.15;2.63;;;;;;;11.13;69.10;97628.50;4906309;28;20734;-81
2023/12/27 05:28:55;;;;;;;4.60;3.20;;;;;;;11.13;68.70;97625.91;4891993;28;20706;-81
2023/12/27 05:31:21;;;;;;;6.25;2.90;;;;;;;11.08;69.01;97620.59;4901214;28;20195;-81
2023/12/27 05:33:46;;;;;;;4.13;3.15;;;;;;;11.06;68.66;97622.66;4885693;28;20401;-83
2023/12/27 05:36:12;;;;;;;6.10;3.38;;;;;;;11.06;68.61;97618.22;4922998;28;20340;-82
2023/12/27 05:38:37;;;;;;;5.25;3.08;;;;;;;11.13;68.63;97627.72;4894896;28;20728;-81
2023/12/27 05:41:03;;;;;;;4.28;3.03;;;;;;;11.09;69.19;97616.19;4886065;28;20236;-81
2023/12/27 05:43:29;;;;;;;4.80;3.38;;;;;;;11.11;68.92;97629.78;4909156;28;20757;-81
2023/12/27 05:45:54;;;;;;;8.77;3.60;;;;;;;11.12;68.55;97634.75;4911246;28;20247;-81
2023/12/27 05:48:19;;;;;;;7.28;3.58;;;;;;;11.13;67.60;97625.13;4890921;28;20202;-80
2023/12/27 05:50:45;;;;;;;5.25;3.30;;;;;;;11.10;68.17;97628.97;4894546;28;20171;-81
2023/12/27 05:53:10;;;;;;;6.13;3.88;;;;;;;10.98;69.18;97617.84;4894621;28;20308;-81
2023/12/27 05:55:36;;;;;;;8.00;3.55;;;;;;;10.96;68.89;97620.69;4891458;28;20341;-81
2023/12/27 05:58:01;;;;;;;7.07;4.18;;;;;;;11.10;68.59;97633.41;4908240;28;20372;-81
2023/12/27 06:00:27;;;;;;;8.65;3.65;;;;;;;11.13;68.64;97635.53;4893514;28;20806;-81
2023/12/27 06:02:52;;;;;;;4.97;3.30;;;;;;;11.17;68.54;97644.47;4893578;28;20635;-80
2023/12/27 06:05:19;;;;;;;7.05;3.88;;;;;;;11.13;68.58;97649.34;4894710;28;20260;-81
2023/12/27 06:07:45;;;;;;;6.40;3.28;;;;;;;11.14;69.09;97650.94;4912876;28;20185;-80
2023/12/27 06:10:10;;;;;;;6.40;3.15;;;;;;;11.04;68.63;97635.16;4925463;28;20284;-81
2023/12/27 06:12:35;;;;;;;7.15;3.40;;;;;;;11.01;68.78;97633.78;4898720;28;20210;-82
2023/12/27 06:15:02;;;;;;;7.90;3.63;;;;;;;11.04;68.23;97643.75;4903371;28;20226;-81
2023/12/27 06:17:27;;;;;;;5.45;3.50;;;;;;;11.01;68.79;97636.38;4907853;28;20247;-81
2023/12/27 06:19:53;;;;;;;6.50;3.30;;;;;;;11.09;68.74;97644.84;4895468;28;20367;-81
2023/12/27 06:22:18;;;;;;;7.20;2.97;;;;;;;11.02;68.59;97658.84;4894360;28;20287;-81
2023/12/27 06:24:44;;;;;;;6.38;3.50;;;;;;;11.09;68.30;97647.44;4905743;28;20308;-80
2023/12/27 06:27:10;;;;;;;6.70;2.95;;;;;;;10.98;69.13;97649.88;4894197;28;20038;-80
2023/12/27 06:29:35;;;;;;;8.77;3.25;;;;;;;11.03;68.89;97647.38;4908857;28;20261;-81
2023/12/27 06:32:02;;;;;;;6.93;3.22;;;;;;;11.12;69.15;97636.56;4884482;28;20520;-81
2023/12/27 06:34:28;;;;;;;5.22;3.25;;;;;;;11.10;68.58;97633.41;4910578;28;20591;-81
2023/12/27 06:36:53;;;;;;;4.45;3.05;;;;;;;11.12;68.85;97637.38;4910373;28;20277;-81
2023/12/27 06:39:19;;;;;;;4.10;2.97;;;;;;;11.18;68.50;97638.22;4877081;28;20258;-81
2023/12/27 06:41:45;;;;;;;7.25;3.38;;;;;;;11.06;68.42;97633.09;4907041;28;20250;-81
2023/12/27 06:44:10;;;;;;;5.85;2.63;;;;;;;11.05;68.30;97634.09;4896222;28;20297;-81
2023/12/27 06:46:35;;;;;;;5.47;3.03;;;;;;;11.11;68.68;97624.56;4925356;28;20618;-81
2023/12/27 06:49:01;;;;;;;4.68;3.13;;;;;;;11.09;68.83;97621.38;4909818;28;20222;-81
2023/12/27 06:51:26;;;;;;;6.03;2.95;;;;;;;11.12;68.01;97619.13;4919504;28;20309;-81
2023/12/27 06:53:52;;;;;;;6.68;3.30;;;;;;;11.05;68.32;97616.66;4911707;28;20187;-80
2023/12/27 06:56:17;;;;;;;5.15;2.78;;;;;;;11.05;68.80;97608.84;4911831;28;20189;-81
2023/12/27 06:58:43;;;;;;;4.97;2.97;;;;;;;11.08;68.68;97617.22;4894379;28;20729;-81
2023/12/27 07:01:09;;;;;;;3.83;2.97;;;;;;;11.11;68.16;97622.75;4895882;28;20168;-80
2023/12/27 07:03:35;;;;;;;6.78;3.00;;;;;;;11.17;68.44;97634.03;4890608;28;20252;-81
2023/12/27 07:06:00;;;;;;;7.85;3.33;;;;;;;11.03;68.53;97634.34;4875636;28;20338;-81
2023/12/27 07:08:25;;;;;;;6.63;3.00;;;;;;;11.06;68.14;97633.88;4893171;28;20186;-81
2023/12/27 07:10:51;;;;;;;4.10;2.80;;;;;;;11.13;68.45;97627.72;4892010;28;20324;-81
2023/12/27 07:13:16;;;;;;;5.18;2.75;;;;;;;11.09;68.68;97637.84;4868149;28;20198;-81
2023/12/27 07:15:42;;;;;;;5.00;2.95;;;;;;;11.12;68.12;97637.38;4886796;28;20329;-81
2023/12/27 07:18:07;;;;;;;6.13;2.92;;;;;;;11.16;68.37;97635.09;4902961;28;20171;-81
2023/12/27 07:20:32;;;;;;;5.82;3.30;;;;;;;11.09;68.26;97632.63;4892070;28;20182;-80
2023/12/27 07:22:58;;;;;;;7.28;3.38;;;;;;;11.09;68.15;97640.44;4925337;28;20280;-79
2023/12/27 07:25:23;;;;;;;4.85;3.42;;;;;;;11.01;67.84;97628.56;4892342;28;20233;-80
2023/12/27 07:27:48;;;;;;;4.50;2.58;;;;;;;11.00;68.74;97632.22;4905782;28;20189;-80
2023/12/27 07:30:14;;;;;;;5.78;3.50;;;;;;;10.96;68.55;97617.28;4899613;28;20400;-81
2023/12/27 07:32:39;;;;;;;4.85;2.50;;;;;;;11.05;68.67;97627.09;4883109;28;20275;-80
2023/12/27 07:35:05;;;;;;;4.55;3.08;;;;;;;11.03;68.97;97629.13;4893283;28;20268;-80
2023/12/27 07:37:31;;;;;;;5.43;2.70;;;;;;;11.13;68.48;97632.94;4892770;28;20193;-80
2023/12/27 07:39:56;;;;;;;4.97;3.28;;;;;;;11.17;68.36;97629.63;4871758;28;20249;-80
2023/12/27 07:42:22;;;;;;;4.70;3.15;;;;;;;11.06;68.48;97613.03;4908473;28;20936;-79
2023/12/27 07:44:48;;;;;;;5.30;3.08;;;;;;;10.97;68.90;97591.00;4892935;28;20392;-80
2023/12/27 07:47:13;;;;;;;4.35;3.15;;;;;;;11.05;68.34;97595.81;4901235;28;20660;-80
2023/12/27 07:49:39;;;;;;;4.47;2.75;;;;;;;11.04;68.92;97596.84;4887998;28;20222;-80
2023/12/27 07:52:04;;;;;;;5.07;2.97;;;;;;;10.99;69.27;97591.56;4917539;28;20240;-80
2023/12/27 07:54:31;;;;;;;5.55;3.42;;;;;;;11.05;68.41;97605.44;4926780;28;20189;-81
2023/12/27 07:56:57;;;;;;;5.32;2.95;;;;;;;11.01;69.29;97605.13;4887034;28;20333;-80
2023/12/27 07:59:23;;;;;;;4.38;2.40;;;;;;;11.10;69.07;97612.56;4901901;28;20383;-80
2023/12/27 08:01:48;;;;;;;6.55;2.80;;;;;;;11.11;69.19;97603.72;4873797;28;20201;-80
2023/12/27 08:04:14;;;;;;;5.18;3.30;;;;;;;11.10;69.00;97591.72;4875412;28;20358;-80
2023/12/27 08:06:39;;;;;;;3.50;2.88;;;;;;;11.08;68.64;97565.88;4910373;28;20636;-80
2023/12/27 08:09:04;;;;;;;3.38;2.22;;;;;;;11.06;69.01;97540.06;4873340;28;20354;-82
2023/12/27 08:11:30;;;;;;;5.97;2.75;;;;;;;11.13;68.70;97541.72;4920367;28;20245;-80
2023/12/27 08:13:55;;;;;;;3.63;2.72;;;;;;;11.23;69.14;97550.47;4900058;28;20166;-79
2023/12/27 08:16:21;;;;;;;4.20;2.45;;;;;;;11.31;67.82;97561.53;4891765;28;20306;-80
2023/12/27 08:18:46;;;;;;;5.07;2.70;;;;;;;11.30;67.84;97565.94;4924815;28;20255;-80
2023/12/27 08:21:12;;;;;;;5.10;2.58;;;;;;;11.18;68.80;97558.22;4909464;28;20175;-80
2023/12/27 08:23:37;;;;;;;4.05;2.67;;;;;;;11.16;68.24;97541.25;4916764;28;20205;-80
2023/12/27 08:26:06;;;;;;;4.57;2.50;;;;;;;11.18;68.74;97547.78;4888128;28;20206;-80
2023/12/27 08:28:35;;;;;;;3.60;2.67;;;;;;;11.28;68.38;97562.03;4909419;28;20213;-80
2023/12/27 08:31:01;;;;;;;5.53;2.67;;;;;;;11.23;69.04;97554.91;4894415;28;20637;-81
2023/12/27 08:33:28;;;;;;;3.75;2.45;;;;;;;11.27;68.83;97553.38;4891631;28;20084;-80
2023/12/27 08:35:54;;;;;;;3.40;2.30;;;;;;;11.22;69.11;97543.69;4905115;28;20241;-81
2023/12/27 08:38:21;;;;;;;3.13;2.10;;;;;;;11.23;69.02;97540.03;4874600;28;20320;-80
2023/12/27 08:40:47;;;;;;;3.45;2.15;;;;;;;11.30;69.29;97545.09;4891799;28;20221;-81
2023/12/27 08:43:14;;;;;;;3.08;2.20;;;;;;;11.46;68.61;97571.38;4892543;28;20193;-80
2023/12/27 08:45:39;;;;;;;3.20;2.35;;;;;;;11.48;68.67;97579.75;4889358;28;20193;-79
2023/12/27 08:48:06;;;;;;;3.95;2.28;;;;;;;11.43;68.30;97585.69;4923375;28;20284;-81
2023/12/27 08:50:32;;;;;;;3.85;2.33;;;;;;;11.33;68.64;97585.56;4901406;28;20194;-79
2023/12/27 08:52:57;;;;;;;3.28;2.40;;;;;;;11.31;68.82;97577.97;4910693;28;20571;-79
2023/12/27 08:55:23;;;;;;;2.45;1.95;;;;;;;11.47;68.30;97586.00;4915176;28;20244;-79
2023/12/27 08:57:48;;;;;;;3.72;2.28;;;;;;;11.49;68.53;97589.16;4908814;28;20654;-79
2023/12/27 09:00:14;;;;;;;3.78;1.92;;;;;;;11.48;68.17;97588.38;4909470;28;20260;-79
2023/12/27 09:02:41;;;;;;;3.78;1.90;;;;;;;11.51;68.58;97572.22;4907521;28;20279;-79
2023/12/27 09:05:07;;;;;;;3.42;1.90;;;;;;;11.58;68.33;97582.50;4895873;28;20216;-79
2023/12/27 09:07:33;;;;;;;3.20;2.08;;;;;;;11.55;68.19;97580.38;4893929;28;20148;-79
2023/12/27 09:09:58;;;;;;;5.13;2.15;;;;;;;11.50;68.62;97569.84;4906197;28;20317;-79
2023/12/27 09:12:24;;;;;;;3.88;1.80;;;;;;;11.56;68.81;97563.69;4893004;28;20654;-79
2023/12/27 09:14:49;;;;;;;3.38;1.88;;;;;;;11.69;68.36;97550.31;4902677;28;20613;-79
2023/12/27 09:17:15;;;;;;;6.40;2.20;;;;;;;11.54;68.50;97550.13;4910625;28;20292;-78
2023/12/27 09:19:42;;;;;;;2.92;2.28;;;;;;;11.63;66.95;97548.66;4907755;28;20273;-79
2023/12/27 09:22:07;;;;;;;4.10;2.13;;;;;;;11.69;68.00;97563.34;4910165;28;20205;-81
2023/12/27 09:24:33;;;;;;;4.90;2.17;;;;;;;11.56;66.01;97553.25;4927099;28;20711;-79
2023/12/27 09:26:59;;;;;;;3.90;2.10;;;;;;;11.55;66.72;97551.69;4888256;28;20196;-79
2023/12/27 09:29:24;;;;;;;4.45;1.90;;;;;;;11.41;67.13;97536.41;4892867;28;20256;-78
2023/12/27 09:31:49;;;;;;;3.97;1.98;;;;;;;11.54;66.41;97539.69;4889778;28;20166;-79
2023/12/27 09:34:15;;;;;;;4.32;2.33;;;;;;;11.56;65.47;97543.63;4885922;28;20230;-79
2023/12/27 09:36:40;;;;;;;4.40;1.95;;;;;;;11.47;66.16;97534.63;4916107;28;20026;-79
2023/12/27 09:39:06;;;;;;;3.75;2.00;;;;;;;11.56;66.01;97540.22;4925759;28;20288;-78
2023/12/27 09:41:31;;;;;;;2.65;1.73;;;;;;;11.57;66.19;97534.78;4909864;28;20345;-78
2023/12/27 09:43:57;;;;;;;3.63;2.30;;;;;;;11.72;67.08;97533.38;4900218;28;20198;-78
2023/12/27 09:46:24;;;;;;;3.97;2.10;;;;;;;11.84;66.10;97554.94;4893057;28;20280;-79
2023/12/27 09:48:51;;;;;;;3.28;2.17;;;;;;;11.66;65.47;97557.84;4903524;28;20585;-78
2023/12/27 09:51:23;;;;;;;4.13;2.10;;;;;;;11.74;66.17;97547.00;4894823;28;20605;-78
2023/12/27 09:53:49;;;;;;;3.08;1.98;;;;;;;11.81;65.47;97550.97;4927903;28;20301;-78
2023/12/27 09:56:15;;;;;;;2.55;1.92;;;;;;;11.74;64.57;97539.94;4926590;28;20363;-78
2023/12/27 09:58:41;;;;;;;3.85;2.58;;;;;;;11.51;65.31;97538.34;4893493;28;20283;-78
2023/12/27 10:01:07;;;;;;;3.25;2.50;;;;;;;11.51;65.17;97551.38;4894041;28;20336;-78
2023/12/27 10:03:40;;;;;;;4.15;2.58;;;;;;;11.57;65.06;97544.44;4876554;28;20202;-78
2023/12/27 10:06:29;;;;;;;4.75;2.55;;;;;;;11.48;65.62;97540.63;4878835;28;20171;-79
2023/12/27 10:08:55;;;;;;;4.88;2.25;;;;;;;11.40;65.62;97531.41;4914655;28;20656;-77
2023/12/27 10:11:20;;;;;;;6.20;2.25;;;;;;;11.41;66.03;97531.19;4899530;28;20280;-78
2023/12/27 10:13:47;;;;;;;4.93;2.35;;;;;;;11.43;66.44;97531.72;4909502;28;20170;-78
2023/12/27 10:16:12;;;;;;;4.93;2.50;;;;;;;11.56;66.24;97535.78;4884450;28;20175;-77
2023/12/27 10:18:37;;;;;;;4.25;2.80;;;;;;;11.52;66.28;97528.72;4887115;28;20257;-77
2023/12/27 10:21:04;;;;;;;5.45;2.70;;;;;;;11.41;66.92;97520.75;4909613;28;20167;-77
2023/12/27 10:23:33;;;;;;;3.78;2.70;;;;;;;11.31;65.73;97515.41;4924633;28;20715;-77
2023/12/27 10:25:58;;;;;;;4.95;2.78;;;;;;;11.39;66.57;97507.16;4906120;28;20073;-78
2023/12/27 10:28:24;;;;;;;6.88;3.42;;;;;;;11.41;66.61;97515.53;4902117;28;20197;-78
2023/12/27 10:30:51;;;;;;;5.28;3.85;;;;;;;11.52;66.63;97507.84;4892510;28;20746;-78
2023/12/27 10:33:17;;;;;;;3.42;2.58;;;;;;;11.50;66.64;97496.84;4909562;28;20178;-77
2023/12/27 10:35:43;;;;;;;4.05;2.65;;;;;;;11.50;66.62;97489.84;4891130;28;20176;-78
2023/12/27 10:38:08;;;;;;;6.05;3.15;;;;;;;11.61;67.11;97501.94;4903471;28;20320;-78
2023/12/27 10:40:34;;;;;;;5.40;2.85;;;;;;;11.53;65.93;97486.75;4897651;28;20214;-78
2023/12/27 10:43:00;;;;;;;5.88;2.80;;;;;;;11.75;65.87;97480.72;4873879;28;20284;-78
2023/12/27 10:45:25;;;;;;;4.85;2.45;;;;;;;11.62;65.40;97479.28;4913145;28;20697;-78
2023/12/27 10:47:59;;;;;;;4.50;2.63;;;;;;;11.61;65.78;97477.69;4881285;28;20185;-77
2023/12/27 10:50:26;;;;;;;3.08;2.15;;;;;;;11.57;66.35;97469.56;4893731;28;20221;-78
2023/12/27 10:52:59;;;;;;;7.22;2.42;;;;;;;11.63;66.33;97457.38;4925414;28;20281;-78
2023/12/27 10:55:27;;;;;;;4.13;2.22;;;;;;;11.60;66.90;97456.06;4907251;28;20221;-78
2023/12/27 10:57:54;;;;;;;4.38;2.40;;;;;;;11.63;66.70;97452.16;4926447;28;20208;-78
2023/12/27 11:00:21;;;;;;;3.50;2.47;;;;;;;11.60;66.47;97439.59;4889513;28;20271;-78
2023/12/27 11:02:47;;;;;;;3.63;2.60;;;;;;;11.59;66.19;97449.25;4903127;28;20202;-78
2023/12/27 11:05:14;;;;;;;4.22;2.20;;;;;;;11.69;65.39;97434.75;4905751;28;20216;-78
2023/12/27 11:07:41;;;;;;;3.25;2.80;;;;;;;11.70;66.95;97439.72;4874324;28;20718;-78
2023/12/27 11:10:07;;;;;;;2.63;2.00;;;;;;;11.87;66.76;97428.41;4906067;28;20214;-78
2023/12/27 11:12:33;;;;;;;4.75;2.10;;;;;;;11.80;66.08;97421.56;4912042;28;20241;-78
2023/12/27 11:15:02;;;;;;;3.55;2.42;;;;;;;11.92;66.01;97425.88;4891012;28;20201;-78
2023/12/27 11:17:28;;;;;;;2.72;2.10;;;;;;;11.65;65.32;97436.28;4925336;28;20197;-79
2023/12/27 11:19:54;;;;;;;3.70;2.83;;;;;;;11.58;65.12;97428.63;4905308;28;20202;-78
2023/12/27 11:22:19;;;;;;;4.03;2.20;;;;;;;11.71;65.98;97423.03;4891998;28;20524;-78
2023/12/27 11:24:45;;;;;;;4.43;2.17;;;;;;;11.53;64.87;97425.97;4887689;28;20195;-78
2023/12/27 11:27:11;;;;;;;2.97;1.98;;;;;;;11.61;65.42;97420.31;4902160;28;20292;-78